createdAt,value
2023-03-07T00:02:00.183Z,223.10
2023-03-07T00:12:05.447Z,232.00
2023-03-07T00:22:08.822Z,233.00
2023-03-07T00:32:13.607Z,248.50
2023-03-07T00:42:17.248Z,235.03
2023-03-07T00:52:22.030Z,237.50
2023-03-07T01:02:25.533Z,225.70
2023-03-07T01:12:30.295Z,209.13
2023-03-07T01:22:33.955Z,211.57
2023-03-07T01:32:38.825Z,215.90
2023-03-07T01:42:42.648Z,227.00
2023-03-07T01:52:50.731Z,225.47
2023-03-07T02:03:05.465Z,218.47
2023-03-07T02:13:12.384Z,211.37
2023-03-07T02:23:26.419Z,210.83
2023-03-07T02:33:32.017Z,209.43
2023-03-07T02:43:40.185Z,212.90
2023-03-07T02:53:46.294Z,212.63
2023-03-07T03:03:50.119Z,209.87
2023-03-07T03:13:55.005Z,203.90
2023-03-07T03:23:58.891Z,207.10
2023-03-07T03:34:05.207Z,216.07
2023-03-07T03:44:10.131Z,210.47
2023-03-07T03:54:15.165Z,212.50
2023-03-07T04:04:19.238Z,205.77
2023-03-07T04:14:24.604Z,213.60
2023-03-07T04:24:28.802Z,201.97
2023-03-07T04:34:33.799Z,209.53
2023-03-07T04:44:37.353Z,202.47
2023-03-07T04:54:42.242Z,202.27
2023-03-07T05:04:45.954Z,207.63
2023-03-07T05:14:51.083Z,205.03
2023-03-07T05:24:54.662Z,205.97
2023-03-07T05:35:00.188Z,204.73
2023-03-07T05:45:05.765Z,206.03
2023-03-07T05:55:11.724Z,204.97
2023-03-07T06:05:15.373Z,208.10
2023-03-07T06:15:24.615Z,207.80
2023-03-07T06:25:34.265Z,206.77
2023-03-07T06:35:43.275Z,205.30
2023-03-07T06:45:47.428Z,213.23
2023-03-07T06:55:54.062Z,215.33
2023-03-07T07:05:57.576Z,221.70
2023-03-07T07:16:07.341Z,219.50
2023-03-07T07:26:12.704Z,218.73
2023-03-07T07:36:17.546Z,226.77
2023-03-07T07:46:21.466Z,230.00
2023-03-07T07:56:26.843Z,225.37
2023-03-07T08:06:30.865Z,225.47
2023-03-07T08:16:35.755Z,230.53
2023-03-07T08:26:39.384Z,232.30
2023-03-07T08:36:44.401Z,227.53
2023-03-07T08:46:47.919Z,223.13
2023-03-07T08:56:52.740Z,229.00
2023-03-07T09:06:56.828Z,228.10
2023-03-07T09:17:01.856Z,217.53
2023-03-07T09:27:05.419Z,221.37
2023-03-07T09:37:10.268Z,220.40
2023-03-07T09:47:36.275Z,219.37
2023-03-07T09:57:50.303Z,218.47
2023-03-07T10:07:56.156Z,223.70
2023-03-07T10:18:18.314Z,220.40
2023-03-07T10:28:26.175Z,219.00
2023-03-07T10:38:38.771Z,213.87
2023-03-07T10:48:47.327Z,216.17
2023-03-07T10:59:04.390Z,218.40
2023-03-07T11:09:17.949Z,214.00
2023-03-07T11:19:45.360Z,210.53
2023-03-07T11:30:18.098Z,213.37
2023-03-07T11:40:28.455Z,220.97
2023-03-07T11:50:33.839Z,219.47
2023-03-07T12:00:53.843Z,220.03
2023-03-07T12:11:15.627Z,216.50
2023-03-07T12:21:41.863Z,214.40
2023-03-07T12:31:49.729Z,216.50
2023-03-07T12:42:05.666Z,219.43
2023-03-07T12:52:19.441Z,215.67
2023-03-07T13:02:30.754Z,215.17
2023-03-07T13:12:36.301Z,218.07
2023-03-07T13:23:02.244Z,218.93
2023-03-07T13:33:26.626Z,225.53
2023-03-07T13:44:02.809Z,221.03
2023-03-07T13:54:12.849Z,218.60
2023-03-07T14:04:38.311Z,232.83
2023-03-07T14:15:09.364Z,222.70
2023-03-07T14:25:19.610Z,218.17
2023-03-07T14:35:38.454Z,227.70
2023-03-07T14:45:47.401Z,226.37
2023-03-07T14:55:53.987Z,218.63
2023-03-07T15:06:01.255Z,234.43
2023-03-07T15:16:09.147Z,224.70
2023-03-07T15:26:21.260Z,215.67
2023-03-07T15:36:27.792Z,212.97
2023-03-07T15:46:34.117Z,215.70
2023-03-07T15:56:38.172Z,220.43
2023-03-07T16:06:45.294Z,213.80
2023-03-07T16:16:49.129Z,211.23
2023-03-07T16:26:53.970Z,210.07
2023-03-07T16:36:57.465Z,213.80
2023-03-07T16:47:09.225Z,215.77
2023-03-07T16:57:16.364Z,212.37
2023-03-07T17:07:23.509Z,219.67
2023-03-07T17:17:33.181Z,218.53
2023-03-07T17:27:43.095Z,217.77
2023-03-07T17:37:48.034Z,212.47
2023-03-07T17:47:54.381Z,215.03
2023-03-07T17:57:57.789Z,220.77
2023-03-07T18:08:05.066Z,216.60
2023-03-07T18:18:08.554Z,218.67
2023-03-07T18:28:13.773Z,221.13
2023-03-07T18:38:18.323Z,225.27
2023-03-07T18:48:23.167Z,220.17
2023-03-07T18:58:26.786Z,222.70
2023-03-07T19:08:31.743Z,222.97
2023-03-07T19:18:36.848Z,221.03
2023-03-07T19:28:42.196Z,222.90
2023-03-07T19:38:47.941Z,223.70
2023-03-07T19:48:52.807Z,230.23
2023-03-07T19:58:58.848Z,228.83
2023-03-07T20:09:03.661Z,223.47
2023-03-07T20:19:09.697Z,224.77
2023-03-07T20:29:15.169Z,216.57
2023-03-07T20:39:18.646Z,219.27
2023-03-07T20:49:24.749Z,217.27
2023-03-07T20:59:28.303Z,206.70
2023-03-07T21:09:33.235Z,216.57
2023-03-07T21:19:37.036Z,208.87
2023-03-07T21:29:41.981Z,204.70
2023-03-07T21:39:45.734Z,212.47
2023-03-07T21:49:50.546Z,211.07
2023-03-07T21:59:54.004Z,209.47
2023-03-07T22:09:58.870Z,206.30
2023-03-07T22:20:02.425Z,210.20
2023-03-07T22:30:09.702Z,208.67
2023-03-07T22:40:14.544Z,212.00
2023-03-07T22:50:48.396Z,208.57
2023-03-07T23:00:52.434Z,206.57
2023-03-07T23:11:04.985Z,203.30
2023-03-07T23:21:11.110Z,206.37
2023-03-07T23:31:22.113Z,205.63
2023-03-07T23:41:26.352Z,205.63
2023-03-07T23:51:31.176Z,203.87
